sensor_id;sensor_type;location;lat;lon;timestamp;P1;durP1;ratioP1;P2;durP2;ratioP2
7821;SDS011;3956;50.558;9.678;2023-03-11T00:01:24;3.03;;;2.43;;
7821;SDS011;3956;50.558;9.678;2023-03-11T00:03:53;3.73;;;2.40;;
7821;SDS011;3956;50.558;9.678;2023-03-11T00:06:23;2.90;;;2.30;;
7821;SDS011;3956;50.558;9.678;2023-03-11T00:08:51;3.40;;;2.33;;
7821;SDS011;3956;50.558;9.678;2023-03-11T00:11:20;2.90;;;1.77;;
7821;SDS011;3956;50.558;9.678;2023-03-11T00:13:49;3.53;;;2.10;;
7821;SDS011;3956;50.558;9.678;2023-03-11T00:16:18;3.57;;;2.43;;
7821;SDS011;3956;50.558;9.678;2023-03-11T00:18:54;3.60;;;2.40;;
7821;SDS011;3956;50.558;9.678;2023-03-11T00:25:13;1.50;;;1.40;;
7821;SDS011;3956;50.558;9.678;2023-03-11T00:28:53;2.73;;;2.37;;
7821;SDS011;3956;50.558;9.678;2023-03-11T00:31:27;1.80;;;1.63;;
7821;SDS011;3956;50.558;9.678;2023-03-11T00:33:59;1.90;;;1.73;;
7821;SDS011;3956;50.558;9.678;2023-03-11T00:36:29;1.63;;;1.53;;
7821;SDS011;3956;50.558;9.678;2023-03-11T00:39:00;2.03;;;1.70;;
7821;SDS011;3956;50.558;9.678;2023-03-11T00:41:31;2.40;;;2.13;;
7821;SDS011;3956;50.558;9.678;2023-03-11T00:44:00;3.13;;;2.57;;
7821;SDS011;3956;50.558;9.678;2023-03-11T00:46:28;2.20;;;1.87;;
7821;SDS011;3956;50.558;9.678;2023-03-11T00:48:57;3.13;;;2.57;;
7821;SDS011;3956;50.558;9.678;2023-03-11T00:51:26;3.40;;;2.53;;
7821;SDS011;3956;50.558;9.678;2023-03-11T00:54:12;2.90;;;2.50;;
7821;SDS011;3956;50.558;9.678;2023-03-11T00:56:40;3.13;;;2.70;;
7821;SDS011;3956;50.558;9.678;2023-03-11T00:59:09;3.37;;;2.87;;
7821;SDS011;3956;50.558;9.678;2023-03-11T01:01:37;3.27;;;2.50;;
7821;SDS011;3956;50.558;9.678;2023-03-11T01:04:05;3.33;;;3.03;;
7821;SDS011;3956;50.558;9.678;2023-03-11T01:06:34;3.27;;;2.90;;
7821;SDS011;3956;50.558;9.678;2023-03-11T01:09:13;2.67;;;1.80;;
7821;SDS011;3956;50.558;9.678;2023-03-11T01:11:42;2.70;;;2.47;;
7821;SDS011;3956;50.558;9.678;2023-03-11T01:14:10;1.50;;;1.40;;
7821;SDS011;3956;50.558;9.678;2023-03-11T01:16:38;2.63;;;2.13;;
7821;SDS011;3956;50.558;9.678;2023-03-11T01:19:07;2.30;;;2.10;;
7821;SDS011;3956;50.558;9.678;2023-03-11T01:21:35;3.77;;;2.37;;
7821;SDS011;3956;50.558;9.678;2023-03-11T01:24:03;2.50;;;2.20;;
7821;SDS011;3956;50.558;9.678;2023-03-11T01:26:34;2.43;;;2.20;;
7821;SDS011;3956;50.558;9.678;2023-03-11T01:29:03;2.40;;;2.20;;
7821;SDS011;3956;50.558;9.678;2023-03-11T01:31:32;2.50;;;2.00;;
7821;SDS011;3956;50.558;9.678;2023-03-11T01:34:01;3.17;;;2.37;;
7821;SDS011;3956;50.558;9.678;2023-03-11T01:36:35;2.53;;;2.33;;
7821;SDS011;3956;50.558;9.678;2023-03-11T01:39:03;2.90;;;2.47;;
7821;SDS011;3956;50.558;9.678;2023-03-11T01:41:33;2.70;;;2.40;;
7821;SDS011;3956;50.558;9.678;2023-03-11T01:44:01;3.13;;;2.77;;
7821;SDS011;3956;50.558;9.678;2023-03-11T01:46:31;3.00;;;2.70;;
7821;SDS011;3956;50.558;9.678;2023-03-11T01:49:03;1.90;;;1.67;;
7821;SDS011;3956;50.558;9.678;2023-03-11T01:51:33;3.17;;;2.60;;
7821;SDS011;3956;50.558;9.678;2023-03-11T01:54:05;3.83;;;3.00;;
7821;SDS011;3956;50.558;9.678;2023-03-11T01:56:38;3.87;;;3.23;;
7821;SDS011;3956;50.558;9.678;2023-03-11T01:59:10;2.93;;;2.50;;
7821;SDS011;3956;50.558;9.678;2023-03-11T02:01:42;3.20;;;2.57;;
7821;SDS011;3956;50.558;9.678;2023-03-11T02:04:16;2.90;;;2.60;;
7821;SDS011;3956;50.558;9.678;2023-03-11T02:06:45;2.77;;;2.47;;
7821;SDS011;3956;50.558;9.678;2023-03-11T02:09:13;4.10;;;2.70;;
7821;SDS011;3956;50.558;9.678;2023-03-11T02:11:43;2.97;;;2.60;;
7821;SDS011;3956;50.558;9.678;2023-03-11T02:14:12;3.57;;;2.80;;
7821;SDS011;3956;50.558;9.678;2023-03-11T02:16:41;2.90;;;2.50;;
7821;SDS011;3956;50.558;9.678;2023-03-11T02:19:11;3.80;;;2.60;;
7821;SDS011;3956;50.558;9.678;2023-03-11T02:21:47;3.50;;;2.53;;
7821;SDS011;3956;50.558;9.678;2023-03-11T02:24:17;2.80;;;2.40;;
7821;SDS011;3956;50.558;9.678;2023-03-11T02:26:55;3.83;;;2.50;;
7821;SDS011;3956;50.558;9.678;2023-03-11T02:29:25;3.77;;;2.50;;
7821;SDS011;3956;50.558;9.678;2023-03-11T02:31:55;2.90;;;2.47;;
7821;SDS011;3956;50.558;9.678;2023-03-11T02:34:26;2.60;;;2.20;;
7821;SDS011;3956;50.558;9.678;2023-03-11T02:36:56;2.80;;;2.37;;
7821;SDS011;3956;50.558;9.678;2023-03-11T02:39:28;3.00;;;2.47;;
7821;SDS011;3956;50.558;9.678;2023-03-11T02:41:59;3.87;;;2.27;;
7821;SDS011;3956;50.558;9.678;2023-03-11T02:44:31;2.80;;;2.50;;
7821;SDS011;3956;50.558;9.678;2023-03-11T02:47:00;3.30;;;2.27;;
7821;SDS011;3956;50.558;9.678;2023-03-11T02:49:29;2.93;;;2.40;;
7821;SDS011;3956;50.558;9.678;2023-03-11T02:51:58;2.40;;;2.20;;
7821;SDS011;3956;50.558;9.678;2023-03-11T02:54:26;2.67;;;2.33;;
7821;SDS011;3956;50.558;9.678;2023-03-11T02:56:55;2.37;;;2.17;;
7821;SDS011;3956;50.558;9.678;2023-03-11T02:59:24;2.60;;;2.00;;
7821;SDS011;3956;50.558;9.678;2023-03-11T03:01:53;2.20;;;1.70;;
7821;SDS011;3956;50.558;9.678;2023-03-11T03:04:21;2.43;;;2.23;;
7821;SDS011;3956;50.558;9.678;2023-03-11T03:06:50;3.20;;;2.70;;
7821;SDS011;3956;50.558;9.678;2023-03-11T03:09:20;2.80;;;2.37;;
7821;SDS011;3956;50.558;9.678;2023-03-11T03:11:49;2.70;;;2.30;;
7821;SDS011;3956;50.558;9.678;2023-03-11T03:14:17;3.47;;;2.73;;
7821;SDS011;3956;50.558;9.678;2023-03-11T03:16:49;3.00;;;2.70;;
7821;SDS011;3956;50.558;9.678;2023-03-11T03:19:19;2.90;;;2.60;;
7821;SDS011;3956;50.558;9.678;2023-03-11T03:21:48;3.53;;;2.60;;
7821;SDS011;3956;50.558;9.678;2023-03-11T03:24:19;3.07;;;2.70;;
7821;SDS011;3956;50.558;9.678;2023-03-11T03:26:49;4.03;;;2.60;;
7821;SDS011;3956;50.558;9.678;2023-03-11T03:29:17;2.80;;;2.40;;
7821;SDS011;3956;50.558;9.678;2023-03-11T03:31:46;2.90;;;2.40;;
7821;SDS011;3956;50.558;9.678;2023-03-11T03:34:16;3.70;;;2.80;;
7821;SDS011;3956;50.558;9.678;2023-03-11T03:36:46;2.90;;;2.50;;
7821;SDS011;3956;50.558;9.678;2023-03-11T03:39:15;4.70;;;3.00;;
7821;SDS011;3956;50.558;9.678;2023-03-11T03:41:45;3.47;;;2.70;;
7821;SDS011;3956;50.558;9.678;2023-03-11T03:44:16;2.90;;;2.53;;
7821;SDS011;3956;50.558;9.678;2023-03-11T03:46:45;3.60;;;3.00;;
7821;SDS011;3956;50.558;9.678;2023-03-11T03:49:16;3.27;;;2.67;;
7821;SDS011;3956;50.558;9.678;2023-03-11T03:51:46;3.57;;;3.00;;
7821;SDS011;3956;50.558;9.678;2023-03-11T03:54:15;3.23;;;2.90;;
7821;SDS011;3956;50.558;9.678;2023-03-11T03:56:45;2.67;;;2.00;;
7821;SDS011;3956;50.558;9.678;2023-03-11T03:59:13;3.00;;;2.33;;
7821;SDS011;3956;50.558;9.678;2023-03-11T04:01:41;2.93;;;2.07;;
7821;SDS011;3956;50.558;9.678;2023-03-11T04:04:10;2.70;;;2.43;;
7821;SDS011;3956;50.558;9.678;2023-03-11T04:06:40;3.00;;;2.40;;
7821;SDS011;3956;50.558;9.678;2023-03-11T04:09:09;4.03;;;2.23;;
7821;SDS011;3956;50.558;9.678;2023-03-11T04:11:39;3.33;;;2.33;;
7821;SDS011;3956;50.558;9.678;2023-03-11T04:14:09;2.63;;;2.37;;
7821;SDS011;3956;50.558;9.678;2023-03-11T04:16:41;4.03;;;2.40;;
7821;SDS011;3956;50.558;9.678;2023-03-11T04:19:14;3.07;;;2.30;;
7821;SDS011;3956;50.558;9.678;2023-03-11T04:21:44;2.13;;;1.90;;
7821;SDS011;3956;50.558;9.678;2023-03-11T04:24:12;2.37;;;2.07;;
7821;SDS011;3956;50.558;9.678;2023-03-11T04:26:40;2.20;;;1.90;;
7821;SDS011;3956;50.558;9.678;2023-03-11T04:29:10;2.30;;;1.67;;
7821;SDS011;3956;50.558;9.678;2023-03-11T04:31:48;3.20;;;2.00;;
7821;SDS011;3956;50.558;9.678;2023-03-11T04:34:21;3.20;;;1.90;;
7821;SDS011;3956;50.558;9.678;2023-03-11T04:36:52;2.97;;;1.77;;
7821;SDS011;3956;50.558;9.678;2023-03-11T04:39:32;3.60;;;1.87;;
7821;SDS011;3956;50.558;9.678;2023-03-11T04:42:03;1.93;;;1.53;;
7821;SDS011;3956;50.558;9.678;2023-03-11T04:44:33;2.37;;;1.70;;
7821;SDS011;3956;50.558;9.678;2023-03-11T04:47:04;3.23;;;1.57;;
7821;SDS011;3956;50.558;9.678;2023-03-11T04:49:33;3.07;;;1.70;;
7821;SDS011;3956;50.558;9.678;2023-03-11T04:52:09;1.83;;;1.50;;
7821;SDS011;3956;50.558;9.678;2023-03-11T04:54:37;2.17;;;1.40;;
7821;SDS011;3956;50.558;9.678;2023-03-11T04:57:07;2.10;;;1.57;;
7821;SDS011;3956;50.558;9.678;2023-03-11T04:59:36;2.90;;;1.50;;
7821;SDS011;3956;50.558;9.678;2023-03-11T05:02:05;1.67;;;1.53;;
7821;SDS011;3956;50.558;9.678;2023-03-11T05:04:34;3.07;;;1.60;;
7821;SDS011;3956;50.558;9.678;2023-03-11T05:07:03;2.20;;;1.53;;
7821;SDS011;3956;50.558;9.678;2023-03-11T05:09:33;3.10;;;1.70;;
7821;SDS011;3956;50.558;9.678;2023-03-11T05:12:01;2.17;;;1.87;;
7821;SDS011;3956;50.558;9.678;2023-03-11T05:14:30;4.90;;;2.10;;
7821;SDS011;3956;50.558;9.678;2023-03-11T05:17:01;2.93;;;1.90;;
7821;SDS011;3956;50.558;9.678;2023-03-11T05:19:30;2.40;;;2.00;;
7821;SDS011;3956;50.558;9.678;2023-03-11T05:22:00;3.73;;;2.00;;
7821;SDS011;3956;50.558;9.678;2023-03-11T05:24:29;2.20;;;2.00;;
7821;SDS011;3956;50.558;9.678;2023-03-11T05:27:02;2.73;;;2.17;;
7821;SDS011;3956;50.558;9.678;2023-03-11T05:29:30;3.07;;;2.20;;
7821;SDS011;3956;50.558;9.678;2023-03-11T05:31:59;5.00;;;2.60;;
7821;SDS011;3956;50.558;9.678;2023-03-11T05:34:28;2.90;;;2.03;;
7821;SDS011;3956;50.558;9.678;2023-03-11T05:37:05;2.90;;;2.20;;
7821;SDS011;3956;50.558;9.678;2023-03-11T05:39:44;3.97;;;2.27;;
7821;SDS011;3956;50.558;9.678;2023-03-11T05:42:16;4.37;;;2.40;;
7821;SDS011;3956;50.558;9.678;2023-03-11T05:44:48;3.40;;;2.27;;
7821;SDS011;3956;50.558;9.678;2023-03-11T05:47:19;3.13;;;2.30;;
7821;SDS011;3956;50.558;9.678;2023-03-11T05:49:47;3.13;;;2.47;;
7821;SDS011;3956;50.558;9.678;2023-03-11T05:52:17;2.70;;;2.10;;
7821;SDS011;3956;50.558;9.678;2023-03-11T05:54:48;3.00;;;2.00;;
7821;SDS011;3956;50.558;9.678;2023-03-11T05:57:18;2.37;;;1.80;;
7821;SDS011;3956;50.558;9.678;2023-03-11T05:59:48;2.50;;;2.23;;
7821;SDS011;3956;50.558;9.678;2023-03-11T06:02:18;3.27;;;2.10;;
7821;SDS011;3956;50.558;9.678;2023-03-11T06:04:47;3.23;;;2.47;;
7821;SDS011;3956;50.558;9.678;2023-03-11T06:07:16;3.10;;;2.27;;
7821;SDS011;3956;50.558;9.678;2023-03-11T06:09:45;2.07;;;1.83;;
7821;SDS011;3956;50.558;9.678;2023-03-11T06:12:17;3.00;;;2.20;;
7821;SDS011;3956;50.558;9.678;2023-03-11T06:14:48;3.17;;;2.17;;
7821;SDS011;3956;50.558;9.678;2023-03-11T06:17:18;3.00;;;2.27;;
7821;SDS011;3956;50.558;9.678;2023-03-11T06:19:47;3.37;;;1.93;;
7821;SDS011;3956;50.558;9.678;2023-03-11T06:22:18;2.90;;;1.97;;
7821;SDS011;3956;50.558;9.678;2023-03-11T06:24:45;2.43;;;1.90;;
7821;SDS011;3956;50.558;9.678;2023-03-11T06:27:14;3.37;;;2.10;;
7821;SDS011;3956;50.558;9.678;2023-03-11T06:29:49;4.10;;;2.20;;
7821;SDS011;3956;50.558;9.678;2023-03-11T06:32:21;2.57;;;2.10;;
7821;SDS011;3956;50.558;9.678;2023-03-11T06:34:49;3.10;;;2.30;;
7821;SDS011;3956;50.558;9.678;2023-03-11T06:37:19;2.53;;;2.07;;
7821;SDS011;3956;50.558;9.678;2023-03-11T06:39:50;3.33;;;2.20;;
7821;SDS011;3956;50.558;9.678;2023-03-11T06:42:21;2.57;;;2.20;;
7821;SDS011;3956;50.558;9.678;2023-03-11T06:44:52;2.47;;;1.97;;
7821;SDS011;3956;50.558;9.678;2023-03-11T06:47:21;2.17;;;1.80;;
7821;SDS011;3956;50.558;9.678;2023-03-11T06:49:50;4.17;;;2.07;;
7821;SDS011;3956;50.558;9.678;2023-03-11T06:52:19;2.87;;;2.10;;
7821;SDS011;3956;50.558;9.678;2023-03-11T06:54:48;3.00;;;2.00;;
7821;SDS011;3956;50.558;9.678;2023-03-11T06:57:17;4.53;;;2.10;;
7821;SDS011;3956;50.558;9.678;2023-03-11T06:59:46;3.33;;;2.20;;
7821;SDS011;3956;50.558;9.678;2023-03-11T07:02:17;2.97;;;2.23;;
7821;SDS011;3956;50.558;9.678;2023-03-11T07:04:47;1.93;;;1.50;;
7821;SDS011;3956;50.558;9.678;2023-03-11T07:07:16;3.07;;;2.03;;
7821;SDS011;3956;50.558;9.678;2023-03-11T07:09:45;4.27;;;2.10;;
7821;SDS011;3956;50.558;9.678;2023-03-11T07:12:15;3.43;;;2.20;;
7821;SDS011;3956;50.558;9.678;2023-03-11T07:14:53;2.83;;;1.60;;
7821;SDS011;3956;50.558;9.678;2023-03-11T07:17:23;4.07;;;2.00;;
7821;SDS011;3956;50.558;9.678;2023-03-11T07:19:53;2.27;;;1.40;;
7821;SDS011;3956;50.558;9.678;2023-03-11T07:22:24;3.30;;;1.60;;
7821;SDS011;3956;50.558;9.678;2023-03-11T07:24:52;2.73;;;2.03;;
7821;SDS011;3956;50.558;9.678;2023-03-11T07:27:22;2.93;;;2.10;;
7821;SDS011;3956;50.558;9.678;2023-03-11T07:29:50;3.53;;;2.00;;
7821;SDS011;3956;50.558;9.678;2023-03-11T07:32:20;2.50;;;1.57;;
7821;SDS011;3956;50.558;9.678;2023-03-11T07:34:52;2.87;;;1.67;;
7821;SDS011;3956;50.558;9.678;2023-03-11T07:37:20;2.37;;;1.70;;
7821;SDS011;3956;50.558;9.678;2023-03-11T07:39:50;2.17;;;1.63;;
7821;SDS011;3956;50.558;9.678;2023-03-11T07:42:19;2.37;;;1.40;;
7821;SDS011;3956;50.558;9.678;2023-03-11T07:44:49;2.20;;;1.40;;
7821;SDS011;3956;50.558;9.678;2023-03-11T07:47:19;3.60;;;1.50;;
7821;SDS011;3956;50.558;9.678;2023-03-11T07:49:47;2.57;;;1.70;;
7821;SDS011;3956;50.558;9.678;2023-03-11T07:52:17;2.83;;;1.70;;
7821;SDS011;3956;50.558;9.678;2023-03-11T07:54:46;3.33;;;1.87;;
7821;SDS011;3956;50.558;9.678;2023-03-11T07:57:14;4.53;;;1.83;;
7821;SDS011;3956;50.558;9.678;2023-03-11T07:59:43;2.60;;;1.87;;
7821;SDS011;3956;50.558;9.678;2023-03-11T08:02:13;3.23;;;1.87;;
7821;SDS011;3956;50.558;9.678;2023-03-11T08:04:42;3.27;;;1.80;;
7821;SDS011;3956;50.558;9.678;2023-03-11T08:07:12;5.87;;;1.70;;
7821;SDS011;3956;50.558;9.678;2023-03-11T08:10:02;6.57;;;2.00;;
7821;SDS011;3956;50.558;9.678;2023-03-11T08:12:32;4.23;;;1.50;;
7821;SDS011;3956;50.558;9.678;2023-03-11T08:15:02;3.37;;;1.87;;
7821;SDS011;3956;50.558;9.678;2023-03-11T08:17:32;2.00;;;1.40;;
7821;SDS011;3956;50.558;9.678;2023-03-11T08:20:02;3.27;;;1.83;;
7821;SDS011;3956;50.558;9.678;2023-03-11T08:23:21;3.87;;;1.57;;
7821;SDS011;3956;50.558;9.678;2023-03-11T08:25:49;3.20;;;1.77;;
7821;SDS011;3956;50.558;9.678;2023-03-11T08:28:18;2.30;;;1.50;;
7821;SDS011;3956;50.558;9.678;2023-03-11T08:30:47;2.70;;;1.33;;
7821;SDS011;3956;50.558;9.678;2023-03-11T08:33:16;2.50;;;1.63;;
7821;SDS011;3956;50.558;9.678;2023-03-11T08:35:45;2.87;;;1.63;;
7821;SDS011;3956;50.558;9.678;2023-03-11T08:38:15;4.80;;;1.50;;
7821;SDS011;3956;50.558;9.678;2023-03-11T08:40:46;2.27;;;1.50;;
7821;SDS011;3956;50.558;9.678;2023-03-11T08:43:15;3.57;;;1.67;;
7821;SDS011;3956;50.558;9.678;2023-03-11T08:45:45;1.87;;;1.30;;
7821;SDS011;3956;50.558;9.678;2023-03-11T08:48:18;3.13;;;1.43;;
7821;SDS011;3956;50.558;9.678;2023-03-11T08:50:50;3.83;;;1.60;;
7821;SDS011;3956;50.558;9.678;2023-03-11T08:55:50;3.93;;;1.20;;
7821;SDS011;3956;50.558;9.678;2023-03-11T08:58:20;3.83;;;2.00;;
7821;SDS011;3956;50.558;9.678;2023-03-11T09:00:50;5.03;;;2.43;;
7821;SDS011;3956;50.558;9.678;2023-03-11T09:03:45;2.50;;;1.13;;
7821;SDS011;3956;50.558;9.678;2023-03-11T09:06:22;3.00;;;1.60;;
7821;SDS011;3956;50.558;9.678;2023-03-11T09:09:00;5.97;;;1.37;;
7821;SDS011;3956;50.558;9.678;2023-03-11T09:11:35;3.63;;;1.40;;
7821;SDS011;3956;50.558;9.678;2023-03-11T09:14:09;3.53;;;1.40;;
7821;SDS011;3956;50.558;9.678;2023-03-11T09:16:47;2.37;;;1.40;;
7821;SDS011;3956;50.558;9.678;2023-03-11T09:19:26;5.37;;;1.60;;
7821;SDS011;3956;50.558;9.678;2023-03-11T09:21:58;3.83;;;1.73;;
7821;SDS011;3956;50.558;9.678;2023-03-11T09:24:52;4.20;;;1.40;;
7821;SDS011;3956;50.558;9.678;2023-03-11T09:27:33;2.17;;;1.10;;
7821;SDS011;3956;50.558;9.678;2023-03-11T09:30:15;4.53;;;1.60;;
7821;SDS011;3956;50.558;9.678;2023-03-11T09:32:48;3.70;;;1.63;;
7821;SDS011;3956;50.558;9.678;2023-03-11T09:35:22;3.60;;;1.40;;
7821;SDS011;3956;50.558;9.678;2023-03-11T09:37:56;4.47;;;1.30;;
7821;SDS011;3956;50.558;9.678;2023-03-11T09:40:27;4.30;;;1.53;;
7821;SDS011;3956;50.558;9.678;2023-03-11T09:43:19;1.67;;;1.50;;
7821;SDS011;3956;50.558;9.678;2023-03-11T09:46:05;3.53;;;1.40;;
7821;SDS011;3956;50.558;9.678;2023-03-11T09:49:50;8.17;;;1.67;;
7821;SDS011;3956;50.558;9.678;2023-03-11T09:53:30;4.10;;;1.30;;
7821;SDS011;3956;50.558;9.678;2023-03-11T09:56:10;4.23;;;1.40;;
7821;SDS011;3956;50.558;9.678;2023-03-11T09:58:52;2.97;;;1.10;;
7821;SDS011;3956;50.558;9.678;2023-03-11T10:01:49;2.43;;;1.03;;
7821;SDS011;3956;50.558;9.678;2023-03-11T10:05:07;2.67;;;1.50;;
7821;SDS011;3956;50.558;9.678;2023-03-11T10:07:43;4.13;;;1.40;;
7821;SDS011;3956;50.558;9.678;2023-03-11T10:10:21;2.27;;;1.40;;
7821;SDS011;3956;50.558;9.678;2023-03-11T10:12:55;2.93;;;1.27;;
7821;SDS011;3956;50.558;9.678;2023-03-11T10:19:04;3.10;;;1.20;;
7821;SDS011;3956;50.558;9.678;2023-03-11T10:21:47;5.80;;;1.10;;
7821;SDS011;3956;50.558;9.678;2023-03-11T10:27:52;3.33;;;1.07;;
7821;SDS011;3956;50.558;9.678;2023-03-11T10:31:17;3.17;;;1.13;;
7821;SDS011;3956;50.558;9.678;2023-03-11T10:33:51;2.90;;;1.03;;
7821;SDS011;3956;50.558;9.678;2023-03-11T10:36:34;4.57;;;1.20;;
7821;SDS011;3956;50.558;9.678;2023-03-11T10:39:11;2.77;;;1.23;;
7821;SDS011;3956;50.558;9.678;2023-03-11T10:41:41;1.87;;;1.20;;
7821;SDS011;3956;50.558;9.678;2023-03-11T10:44:14;3.77;;;1.10;;
7821;SDS011;3956;50.558;9.678;2023-03-11T10:47:03;1.33;;;1.00;;
7821;SDS011;3956;50.558;9.678;2023-03-11T10:49:33;7.30;;;4.13;;
7821;SDS011;3956;50.558;9.678;2023-03-11T10:52:15;2.63;;;1.20;;
7821;SDS011;3956;50.558;9.678;2023-03-11T10:55:16;2.70;;;1.13;;
7821;SDS011;3956;50.558;9.678;2023-03-11T10:58:12;4.20;;;1.20;;
7821;SDS011;3956;50.558;9.678;2023-03-11T11:01:12;5.43;;;1.10;;
7821;SDS011;3956;50.558;9.678;2023-03-11T11:03:57;2.47;;;1.27;;
7821;SDS011;3956;50.558;9.678;2023-03-11T11:06:30;2.70;;;1.07;;
7821;SDS011;3956;50.558;9.678;2023-03-11T11:09:18;3.10;;;1.20;;
7821;SDS011;3956;50.558;9.678;2023-03-11T11:12:00;1.93;;;1.03;;
7821;SDS011;3956;50.558;9.678;2023-03-11T11:17:55;2.83;;;1.20;;
7821;SDS011;3956;50.558;9.678;2023-03-11T11:20:34;2.43;;;1.37;;
7821;SDS011;3956;50.558;9.678;2023-03-11T11:27:45;2.80;;;1.00;;
7821;SDS011;3956;50.558;9.678;2023-03-11T11:30:57;5.00;;;1.23;;
7821;SDS011;3956;50.558;9.678;2023-03-11T11:34:21;1.87;;;1.10;;
7821;SDS011;3956;50.558;9.678;2023-03-11T11:37:09;1.43;;;1.10;;
7821;SDS011;3956;50.558;9.678;2023-03-11T11:39:48;2.37;;;1.03;;
7821;SDS011;3956;50.558;9.678;2023-03-11T11:42:21;3.37;;;1.20;;
7821;SDS011;3956;50.558;9.678;2023-03-11T11:44:55;9.33;;;4.07;;
7821;SDS011;3956;50.558;9.678;2023-03-11T11:47:29;13.57;;;6.00;;
7821;SDS011;3956;50.558;9.678;2023-03-11T11:50:05;3.67;;;1.10;;
7821;SDS011;3956;50.558;9.678;2023-03-11T11:52:45;3.17;;;1.73;;
7821;SDS011;3956;50.558;9.678;2023-03-11T11:55:39;3.03;;;0.97;;
7821;SDS011;3956;50.558;9.678;2023-03-11T11:58:23;2.53;;;0.90;;
7821;SDS011;3956;50.558;9.678;2023-03-11T12:01:00;1.87;;;1.30;;
7821;SDS011;3956;50.558;9.678;2023-03-11T12:03:46;2.53;;;0.90;;
7821;SDS011;3956;50.558;9.678;2023-03-11T12:06:46;2.90;;;1.10;;
7821;SDS011;3956;50.558;9.678;2023-03-11T12:09:21;6.90;;;1.33;;
7821;SDS011;3956;50.558;9.678;2023-03-11T12:11:57;2.07;;;1.10;;
7821;SDS011;3956;50.558;9.678;2023-03-11T12:14:37;3.60;;;1.17;;
7821;SDS011;3956;50.558;9.678;2023-03-11T12:17:16;2.00;;;1.00;;
7821;SDS011;3956;50.558;9.678;2023-03-11T12:19:48;2.43;;;1.20;;
7821;SDS011;3956;50.558;9.678;2023-03-11T12:25:23;11.07;;;1.57;;
7821;SDS011;3956;50.558;9.678;2023-03-11T12:27:59;3.40;;;1.17;;
7821;SDS011;3956;50.558;9.678;2023-03-11T12:30:35;1.37;;;0.90;;
7821;SDS011;3956;50.558;9.678;2023-03-11T12:33:15;2.53;;;1.20;;
7821;SDS011;3956;50.558;9.678;2023-03-11T12:35:52;3.33;;;1.27;;
7821;SDS011;3956;50.558;9.678;2023-03-11T12:38:30;2.87;;;1.33;;
7821;SDS011;3956;50.558;9.678;2023-03-11T12:41:25;3.40;;;1.30;;
7821;SDS011;3956;50.558;9.678;2023-03-11T12:44:00;3.63;;;1.23;;
7821;SDS011;3956;50.558;9.678;2023-03-11T12:49:43;4.57;;;1.10;;
7821;SDS011;3956;50.558;9.678;2023-03-11T12:52:24;2.20;;;0.90;;
7821;SDS011;3956;50.558;9.678;2023-03-11T12:55:55;2.80;;;1.00;;
7821;SDS011;3956;50.558;9.678;2023-03-11T12:59:20;2.87;;;1.10;;
7821;SDS011;3956;50.558;9.678;2023-03-11T13:02:28;4.03;;;1.33;;
7821;SDS011;3956;50.558;9.678;2023-03-11T13:05:46;6.73;;;1.17;;
7821;SDS011;3956;50.558;9.678;2023-03-11T13:08:23;2.13;;;1.43;;
7821;SDS011;3956;50.558;9.678;2023-03-11T13:10:57;3.20;;;1.10;;
7821;SDS011;3956;50.558;9.678;2023-03-11T13:13:34;3.70;;;1.27;;
7821;SDS011;3956;50.558;9.678;2023-03-11T13:29:25;2.97;;;1.50;;
7821;SDS011;3956;50.558;9.678;2023-03-11T13:32:24;4.23;;;1.23;;
7821;SDS011;3956;50.558;9.678;2023-03-11T13:35:08;2.10;;;1.20;;
7821;SDS011;3956;50.558;9.678;2023-03-11T13:37:57;4.15;;;1.48;;
7821;SDS011;3956;50.558;9.678;2023-03-11T13:40:56;2.93;;;1.50;;
7821;SDS011;3956;50.558;9.678;2023-03-11T13:43:30;3.13;;;1.10;;
7821;SDS011;3956;50.558;9.678;2023-03-11T13:46:04;2.90;;;1.30;;
7821;SDS011;3956;50.558;9.678;2023-03-11T13:48:47;2.57;;;1.30;;
7821;SDS011;3956;50.558;9.678;2023-03-11T13:51:22;1.80;;;1.00;;
7821;SDS011;3956;50.558;9.678;2023-03-11T13:54:41;3.53;;;1.20;;
7821;SDS011;3956;50.558;9.678;2023-03-11T13:57:28;2.77;;;1.10;;
7821;SDS011;3956;50.558;9.678;2023-03-11T14:00:03;2.07;;;1.00;;
7821;SDS011;3956;50.558;9.678;2023-03-11T14:02:48;4.27;;;1.57;;
7821;SDS011;3956;50.558;9.678;2023-03-11T14:05:21;1.77;;;1.17;;
7821;SDS011;3956;50.558;9.678;2023-03-11T14:07:52;3.63;;;1.50;;
7821;SDS011;3956;50.558;9.678;2023-03-11T14:10:24;4.13;;;1.10;;
7821;SDS011;3956;50.558;9.678;2023-03-11T14:13:17;2.97;;;1.30;;
7821;SDS011;3956;50.558;9.678;2023-03-11T14:15:54;2.90;;;1.20;;
7821;SDS011;3956;50.558;9.678;2023-03-11T14:18:38;4.00;;;1.30;;
7821;SDS011;3956;50.558;9.678;2023-03-11T14:21:14;1.93;;;1.20;;
7821;SDS011;3956;50.558;9.678;2023-03-11T14:23:48;1.97;;;1.20;;
7821;SDS011;3956;50.558;9.678;2023-03-11T14:26:19;4.97;;;1.40;;
7821;SDS011;3956;50.558;9.678;2023-03-11T14:28:51;1.93;;;1.10;;
7821;SDS011;3956;50.558;9.678;2023-03-11T14:31:27;7.70;;;1.53;;
7821;SDS011;3956;50.558;9.678;2023-03-11T14:33:58;5.90;;;1.40;;
7821;SDS011;3956;50.558;9.678;2023-03-11T14:36:42;6.03;;;1.77;;
7821;SDS011;3956;50.558;9.678;2023-03-11T14:39:22;6.10;;;1.70;;
7821;SDS011;3956;50.558;9.678;2023-03-11T14:41:53;3.63;;;1.50;;
7821;SDS011;3956;50.558;9.678;2023-03-11T14:44:28;5.77;;;1.53;;
7821;SDS011;3956;50.558;9.678;2023-03-11T14:47:02;3.07;;;1.50;;
7821;SDS011;3956;50.558;9.678;2023-03-11T14:49:35;3.57;;;1.60;;
7821;SDS011;3956;50.558;9.678;2023-03-11T14:52:07;2.63;;;1.23;;
7821;SDS011;3956;50.558;9.678;2023-03-11T14:54:48;2.30;;;1.40;;
7821;SDS011;3956;50.558;9.678;2023-03-11T14:57:26;2.90;;;1.30;;
7821;SDS011;3956;50.558;9.678;2023-03-11T15:00:13;4.50;;;1.30;;
7821;SDS011;3956;50.558;9.678;2023-03-11T15:02:50;4.53;;;1.47;;
7821;SDS011;3956;50.558;9.678;2023-03-11T15:09:02;1.57;;;1.00;;
7821;SDS011;3956;50.558;9.678;2023-03-11T15:11:45;3.17;;;1.20;;
7821;SDS011;3956;50.558;9.678;2023-03-11T15:14:23;2.43;;;1.40;;
7821;SDS011;3956;50.558;9.678;2023-03-11T15:17:07;2.70;;;1.33;;
7821;SDS011;3956;50.558;9.678;2023-03-11T15:19:59;2.23;;;1.10;;
7821;SDS011;3956;50.558;9.678;2023-03-11T15:22:28;4.67;;;1.20;;
7821;SDS011;3956;50.558;9.678;2023-03-11T15:25:00;1.77;;;1.00;;
7821;SDS011;3956;50.558;9.678;2023-03-11T15:27:36;3.33;;;1.43;;
7821;SDS011;3956;50.558;9.678;2023-03-11T15:30:16;2.50;;;1.00;;
7821;SDS011;3956;50.558;9.678;2023-03-11T15:32:48;1.83;;;1.13;;
7821;SDS011;3956;50.558;9.678;2023-03-11T15:35:20;5.63;;;1.20;;
7821;SDS011;3956;50.558;9.678;2023-03-11T15:38:10;2.83;;;1.23;;
7821;SDS011;3956;50.558;9.678;2023-03-11T15:40:53;2.03;;;1.10;;
7821;SDS011;3956;50.558;9.678;2023-03-11T15:43:28;4.73;;;1.23;;
7821;SDS011;3956;50.558;9.678;2023-03-11T15:45:59;2.17;;;1.10;;
7821;SDS011;3956;50.558;9.678;2023-03-11T15:48:33;2.80;;;1.30;;
7821;SDS011;3956;50.558;9.678;2023-03-11T15:51:16;1.40;;;1.10;;
7821;SDS011;3956;50.558;9.678;2023-03-11T15:54:03;3.40;;;1.60;;
7821;SDS011;3956;50.558;9.678;2023-03-11T15:56:35;2.77;;;1.40;;
7821;SDS011;3956;50.558;9.678;2023-03-11T15:59:05;3.60;;;1.80;;
7821;SDS011;3956;50.558;9.678;2023-03-11T16:01:39;1.93;;;1.30;;
7821;SDS011;3956;50.558;9.678;2023-03-11T16:11:30;3.83;;;1.40;;
7821;SDS011;3956;50.558;9.678;2023-03-11T16:14:01;3.03;;;1.40;;
7821;SDS011;3956;50.558;9.678;2023-03-11T16:16:31;3.27;;;1.20;;
7821;SDS011;3956;50.558;9.678;2023-03-11T16:19:00;1.33;;;1.20;;
7821;SDS011;3956;50.558;9.678;2023-03-11T16:21:29;6.10;;;1.40;;
7821;SDS011;3956;50.558;9.678;2023-03-11T16:24:03;2.47;;;1.33;;
7821;SDS011;3956;50.558;9.678;2023-03-11T16:26:47;4.47;;;1.50;;
7821;SDS011;3956;50.558;9.678;2023-03-11T16:29:52;4.10;;;1.20;;
7821;SDS011;3956;50.558;9.678;2023-03-11T16:32:21;3.43;;;1.40;;
7821;SDS011;3956;50.558;9.678;2023-03-11T16:34:54;2.23;;;1.10;;
7821;SDS011;3956;50.558;9.678;2023-03-11T16:37:26;3.33;;;1.30;;
7821;SDS011;3956;50.558;9.678;2023-03-11T16:39:58;3.37;;;1.80;;
7821;SDS011;3956;50.558;9.678;2023-03-11T16:42:28;4.17;;;1.50;;
7821;SDS011;3956;50.558;9.678;2023-03-11T16:44:59;5.07;;;1.70;;
7821;SDS011;3956;50.558;9.678;2023-03-11T16:47:30;2.43;;;1.50;;
7821;SDS011;3956;50.558;9.678;2023-03-11T16:50:16;2.30;;;1.40;;
7821;SDS011;3956;50.558;9.678;2023-03-11T16:53:03;2.03;;;1.40;;
7821;SDS011;3956;50.558;9.678;2023-03-11T16:55:49;2.10;;;1.23;;
7821;SDS011;3956;50.558;9.678;2023-03-11T16:58:44;4.17;;;1.40;;